Time;durP1;ratioP1;P1;durP2;ratioP2;P2;SDS_P1;SDS_P2;PMS_P1;PMS_P2;Temp;Humidity;BMP_temperature;BMP_pressure;BME280_temperature;BME280_humidity;BME280_pressure;Samples;Min_cycle;Max_cycle;Signal;HPM_P1;HPM_P2
2023/05/31 00:01:42;;;;;;;12.25;5.18;;;13.10;99.90;;;;;;4983436;28;20034;-66
2023/05/31 00:04:08;;;;;;;12.82;4.25;;;13.10;99.90;;;;;;4970046;28;20117;-66
2023/05/31 00:06:33;;;;;;;13.80;4.97;;;13.10;99.90;;;;;;4977820;28;20030;-66
2023/05/31 00:08:59;;;;;;;8.30;4.43;;;13.10;99.90;;;;;;4984004;28;20019;-65
2023/05/31 00:11:26;;;;;;;10.18;5.00;;;13.00;99.90;;;;;;4989852;28;20045;-66
2023/05/31 00:13:52;;;;;;;11.15;5.40;;;13.00;99.90;;;;;;4990573;28;20028;-66
2023/05/31 00:16:18;;;;;;;10.07;4.68;;;13.00;99.90;;;;;;4976925;28;20132;-66
2023/05/31 00:18:44;;;;;;;8.75;5.40;;;12.90;99.90;;;;;;4974480;28;20030;-65
2023/05/31 00:21:09;;;;;;;19.38;4.93;;;12.90;99.90;;;;;;4963962;28;20045;-66
2023/05/31 00:23:35;;;;;;;9.10;5.38;;;12.90;99.90;;;;;;4984925;28;20031;-66
2023/05/31 00:26:00;;;;;;;9.00;4.13;;;12.90;99.90;;;;;;4958985;28;20420;-66
2023/05/31 00:28:26;;;;;;;14.95;5.35;;;12.90;99.90;;;;;;4961772;28;20034;-68
2023/05/31 00:30:52;;;;;;;11.23;4.80;;;12.80;99.90;;;;;;4982803;28;20419;-66
2023/05/31 00:33:17;;;;;;;11.43;5.38;;;12.90;99.90;;;;;;4977737;28;20038;-66
2023/05/31 00:35:43;;;;;;;11.45;5.10;;;12.90;99.90;;;;;;4975221;28;20110;-66
2023/05/31 00:38:08;;;;;;;10.52;4.97;;;12.90;99.90;;;;;;4977875;28;20397;-66
2023/05/31 00:40:34;;;;;;;12.73;6.28;;;13.00;99.90;;;;;;4978894;28;20077;-66
2023/05/31 00:43:00;;;;;;;10.57;5.05;;;12.90;99.90;;;;;;4977148;28;20057;-66
2023/05/31 00:45:28;;;;;;;11.35;5.55;;;12.90;99.90;;;;;;4976311;28;20030;-66
2023/05/31 00:47:54;;;;;;;6.90;4.45;;;12.80;99.90;;;;;;4960683;28;20165;-65
2023/05/31 00:50:20;;;;;;;10.65;4.55;;;12.80;99.90;;;;;;4977958;28;20029;-66
2023/05/31 00:52:49;;;;;;;15.40;5.65;;;12.80;99.90;;;;;;4987825;28;20014;-66
2023/05/31 00:55:16;;;;;;;12.52;5.65;;;12.80;99.90;;;;;;4983514;28;20030;-65
2023/05/31 00:57:42;;;;;;;15.57;5.20;;;12.70;99.90;;;;;;4988512;28;20109;-66
2023/05/31 01:00:08;;;;;;;11.00;4.78;;;12.70;99.90;;;;;;4983155;28;20126;-67
2023/05/31 01:02:37;;;;;;;9.63;4.90;;;12.70;99.90;;;;;;4981865;28;20077;-66
2023/05/31 01:05:10;;;;;;;10.07;5.20;;;12.70;99.90;;;;;;4987064;28;20477;-65
2023/05/31 01:07:36;;;;;;;10.38;4.63;;;12.70;99.90;;;;;;4985676;28;20038;-66
2023/05/31 01:10:04;;;;;;;12.68;4.88;;;12.70;99.90;;;;;;4989559;28;20400;-66
2023/05/31 01:13:07;;;;;;;11.52;5.10;;;12.60;99.90;;;;;;4986231;28;20023;-66
2023/05/31 01:15:38;;;;;;;15.38;5.03;;;12.60;99.90;;;;;;4985958;28;20031;-66
2023/05/31 01:18:25;;;;;;;9.25;5.30;;;12.60;99.90;;;;;;4989054;28;20039;-65
2023/05/31 01:20:57;;;;;;;7.82;4.45;;;12.60;99.90;;;;;;4982694;28;20030;-65
2023/05/31 01:23:40;;;;;;;11.95;5.22;;;12.50;99.90;;;;;;4988762;28;20030;-66
2023/05/31 01:26:13;;;;;;;13.57;4.53;;;12.50;99.90;;;;;;4981810;28;20053;-66
2023/05/31 01:28:40;;;;;;;12.27;5.18;;;12.50;99.90;;;;;;4982498;28;20108;-65
2023/05/31 01:31:11;;;;;;;10.38;4.60;;;12.50;99.90;;;;;;4961452;28;20034;-66
2023/05/31 01:33:38;;;;;;;13.85;5.20;;;12.50;99.90;;;;;;4982297;28;20080;-66
2023/05/31 01:36:03;;;;;;;9.45;4.53;;;12.50;99.90;;;;;;4958242;28;20023;-66
2023/05/31 01:38:29;;;;;;;8.57;5.57;;;12.50;99.90;;;;;;4953393;28;20048;-66
2023/05/31 01:40:57;;;;;;;13.77;4.50;;;12.40;99.90;;;;;;4992701;28;20623;-65
2023/05/31 01:43:25;;;;;;;11.52;4.57;;;12.30;99.90;;;;;;4974090;28;20023;-66
2023/05/31 01:45:52;;;;;;;9.13;5.22;;;12.30;99.90;;;;;;4991655;28;20364;-66
2023/05/31 01:48:17;;;;;;;14.30;4.75;;;12.20;99.90;;;;;;4989582;28;20022;-66
2023/05/31 01:50:44;;;;;;;11.70;5.13;;;12.20;99.90;;;;;;4991595;28;20558;-65
2023/05/31 01:53:10;;;;;;;9.43;4.68;;;12.10;99.90;;;;;;4992833;28;20114;-66
2023/05/31 01:55:36;;;;;;;11.95;4.95;;;12.20;99.90;;;;;;4987570;28;20446;-66
2023/05/31 01:58:02;;;;;;;13.45;5.45;;;12.10;99.90;;;;;;4990836;28;20120;-65
2023/05/31 02:00:28;;;;;;;12.40;5.47;;;12.10;99.90;;;;;;4992217;28;20029;-66
2023/05/31 02:02:55;;;;;;;14.98;5.65;;;12.10;99.90;;;;;;4973431;28;20061;-65
2023/05/31 02:05:21;;;;;;;11.30;4.88;;;12.00;99.90;;;;;;4989655;28;20033;-66
2023/05/31 02:07:47;;;;;;;7.32;5.15;;;12.00;99.90;;;;;;4992219;28;20109;-65
2023/05/31 02:10:13;;;;;;;16.05;5.35;;;12.00;99.90;;;;;;4986314;28;20020;-66
2023/05/31 02:12:39;;;;;;;10.95;5.47;;;12.00;99.90;;;;;;4987691;28;20367;-66
2023/05/31 02:15:10;;;;;;;14.52;6.03;;;11.90;99.90;;;;;;4987701;28;20046;-66
2023/05/31 02:17:40;;;;;;;17.58;6.03;;;11.90;99.90;;;;;;4985185;28;21643;-66
2023/05/31 02:20:12;;;;;;;8.10;4.93;;;11.80;99.90;;;;;;4983480;28;20034;-66
2023/05/31 02:22:39;;;;;;;9.98;5.75;;;11.80;99.90;;;;;;4983341;28;20026;-66
2023/05/31 02:25:05;;;;;;;12.80;4.65;;;11.80;99.90;;;;;;4987281;28;20117;-65
2023/05/31 02:27:31;;;;;;;9.73;4.82;;;11.80;99.90;;;;;;4967985;28;20557;-66
2023/05/31 02:29:56;;;;;;;14.50;5.35;;;11.70;99.90;;;;;;4988303;28;20025;-65
2023/05/31 02:32:22;;;;;;;7.55;4.13;;;11.70;99.90;;;;;;4982398;28;20097;-65
2023/05/31 02:34:47;;;;;;;14.95;6.05;;;11.60;99.90;;;;;;4991283;28;20018;-66
2023/05/31 02:37:13;;;;;;;9.73;5.72;;;11.60;99.90;;;;;;4971413;28;20088;-66
2023/05/31 02:39:38;;;;;;;12.20;5.40;;;11.50;99.90;;;;;;4983223;28;20062;-66
2023/05/31 02:42:04;;;;;;;9.75;5.25;;;11.60;99.90;;;;;;4987449;28;20022;-66
2023/05/31 02:44:30;;;;;;;12.60;5.70;;;11.60;99.90;;;;;;4983934;28;20050;-66
2023/05/31 02:46:55;;;;;;;11.45;4.95;;;11.60;99.90;;;;;;4989075;28;20061;-66
2023/05/31 02:49:21;;;;;;;11.23;4.80;;;11.50;99.90;;;;;;4971622;28;20022;-65
2023/05/31 02:51:47;;;;;;;14.00;5.20;;;11.50;99.90;;;;;;4988036;28;20080;-65
2023/05/31 02:54:12;;;;;;;13.32;4.88;;;11.40;99.90;;;;;;4984533;28;20109;-66
2023/05/31 02:56:38;;;;;;;17.98;5.53;;;11.40;99.90;;;;;;4984497;28;20034;-65
2023/05/31 02:59:04;;;;;;;16.83;5.30;;;11.30;99.90;;;;;;4985798;28;20037;-65
2023/05/31 03:01:29;;;;;;;12.60;5.05;;;11.20;99.90;;;;;;4989170;28;20038;-65
2023/05/31 03:03:55;;;;;;;12.10;4.72;;;11.20;99.90;;;;;;4972516;28;20030;-66
2023/05/31 03:06:20;;;;;;;10.52;5.47;;;11.20;99.90;;;;;;4972113;28;20658;-65
2023/05/31 03:08:46;;;;;;;13.48;4.88;;;11.20;99.90;;;;;;4985405;28;20092;-66
2023/05/31 03:11:12;;;;;;;11.80;5.10;;;11.20;99.90;;;;;;4983764;28;20034;-66
2023/05/31 03:13:38;;;;;;;11.60;4.00;;;11.20;99.90;;;;;;4984038;28;20378;-65
2023/05/31 03:16:03;;;;;;;12.45;6.18;;;11.20;99.90;;;;;;4991227;28;20018;-66
2023/05/31 03:18:29;;;;;;;9.45;4.93;;;11.30;99.90;;;;;;4979922;28;20037;-66
2023/05/31 03:20:55;;;;;;;9.30;5.25;;;11.40;99.90;;;;;;4987278;28;20026;-66
2023/05/31 03:23:20;;;;;;;15.73;5.93;;;11.40;99.90;;;;;;4983479;28;20027;-65
2023/05/31 03:25:46;;;;;;;9.48;4.90;;;11.40;99.90;;;;;;4966140;28;20056;-65
2023/05/31 03:28:11;;;;;;;9.55;4.93;;;11.50;99.90;;;;;;4985048;28;20026;-66
2023/05/31 03:30:37;;;;;;;11.05;5.20;;;11.40;99.90;;;;;;4958560;28;20030;-66
2023/05/31 03:33:03;;;;;;;9.48;5.32;;;11.40;99.90;;;;;;4985377;28;20037;-65
2023/05/31 03:35:28;;;;;;;8.50;4.68;;;11.50;99.90;;;;;;4988738;28;20069;-66
2023/05/31 03:37:54;;;;;;;13.10;4.90;;;11.50;99.90;;;;;;4945649;28;20066;-65
2023/05/31 03:40:20;;;;;;;11.85;4.47;;;11.50;99.90;;;;;;4985878;28;20089;-65
2023/05/31 03:42:45;;;;;;;17.02;4.88;;;11.50;99.90;;;;;;4987442;28;20045;-65
2023/05/31 03:45:11;;;;;;;9.02;4.50;;;11.60;99.90;;;;;;4985963;28;20388;-65
2023/05/31 03:47:36;;;;;;;13.50;4.88;;;11.60;99.90;;;;;;4982754;28;20030;-66
2023/05/31 03:50:04;;;;;;;9.63;4.88;;;11.70;99.90;;;;;;4987086;28;20049;-66
2023/05/31 03:52:30;;;;;;;10.07;4.80;;;11.70;99.90;;;;;;4985124;28;20029;-66
2023/05/31 03:54:55;;;;;;;12.52;5.28;;;11.80;99.90;;;;;;4990103;28;20034;-65
2023/05/31 03:57:21;;;;;;;10.38;4.45;;;11.90;99.90;;;;;;4989912;28;20030;-66
2023/05/31 03:59:47;;;;;;;13.32;4.68;;;11.90;99.90;;;;;;4989604;28;20022;-66
2023/05/31 04:02:12;;;;;;;14.65;4.70;;;11.90;99.90;;;;;;4968252;28;20428;-65
2023/05/31 04:04:38;;;;;;;11.98;4.85;;;12.00;99.90;;;;;;4988428;28;20105;-66
2023/05/31 04:07:04;;;;;;;13.32;4.13;;;12.00;99.90;;;;;;4986722;28;20049;-65
2023/05/31 04:09:29;;;;;;;11.18;4.25;;;12.00;99.90;;;;;;4986648;28;20031;-65
2023/05/31 04:11:55;;;;;;;12.20;4.43;;;12.10;99.90;;;;;;4981768;28;20034;-66
2023/05/31 04:14:21;;;;;;;8.95;5.38;;;12.10;99.90;;;;;;4989006;28;20022;-66
2023/05/31 04:16:46;;;;;;;11.27;4.32;;;12.20;99.90;;;;;;4987053;28;20069;-65
2023/05/31 04:19:12;;;;;;;15.05;5.65;;;12.30;99.90;;;;;;4981878;28;20105;-66
2023/05/31 04:21:37;;;;;;;10.30;4.53;;;12.30;99.90;;;;;;4980739;28;20384;-65
2023/05/31 04:24:03;;;;;;;10.65;4.53;;;12.40;99.90;;;;;;4985189;28;20511;-65
2023/05/31 04:26:29;;;;;;;7.85;3.65;;;12.40;99.90;;;;;;4987161;28;20042;-65
2023/05/31 04:28:54;;;;;;;11.63;4.82;;;12.50;99.90;;;;;;4984886;28;20026;-65
2023/05/31 04:31:24;;;;;;;7.57;3.92;;;12.80;99.90;;;;;;4982724;28;20037;-65
2023/05/31 04:33:56;;;;;;;7.50;3.42;;;13.40;99.90;;;;;;4987159;28;20030;-65
2023/05/31 04:36:25;;;;;;;6.20;3.42;;;14.60;99.90;;;;;;4979671;28;20081;-65
2023/05/31 04:38:54;;;;;;;6.78;3.38;;;16.00;99.90;;;;;;4967967;28;20050;-65
2023/05/31 04:41:21;;;;;;;6.88;3.83;;;17.30;99.90;;;;;;4986333;28;20038;-65
2023/05/31 04:43:47;;;;;;;8.65;3.55;;;18.20;99.90;;;;;;4988875;28;20037;-64
2023/05/31 04:46:13;;;;;;;8.82;3.75;;;18.80;98.40;;;;;;4987706;28;20511;-65
2023/05/31 04:48:40;;;;;;;9.57;3.60;;;19.50;97.00;;;;;;4987716;28;20029;-65
2023/05/31 04:51:06;;;;;;;6.03;2.90;;;20.10;96.60;;;;;;4981922;28;20026;-65
2023/05/31 04:53:32;;;;;;;5.75;2.65;;;20.90;94.40;;;;;;4984895;28;20058;-66
2023/05/31 04:56:04;;;;;;;5.47;2.40;;;22.00;92.50;;;;;;4987586;28;20532;-65
2023/05/31 04:58:30;;;;;;;4.72;3.05;;;22.90;90.30;;;;;;4971475;28;20026;-66
2023/05/31 05:00:56;;;;;;;5.90;2.90;;;22.80;88.40;;;;;;4985566;28;20031;-66
2023/05/31 05:03:22;;;;;;;4.25;2.10;;;23.30;88.30;;;;;;4988785;28;20019;-66
2023/05/31 05:05:49;;;;;;;6.00;2.47;;;23.00;87.50;;;;;;4980693;28;20556;-66
2023/05/31 05:08:15;;;;;;;3.75;2.22;;;23.20;88.40;;;;;;4985028;28;20513;-66
2023/05/31 05:10:41;;;;;;;5.30;2.53;;;23.80;84.80;;;;;;4988197;28;20035;-66
2023/05/31 05:13:06;;;;;;;6.40;2.70;;;23.60;85.50;;;;;;4990922;28;20026;-66
2023/05/31 05:15:32;;;;;;;7.10;2.70;;;23.70;84.10;;;;;;4994064;28;20454;-66
2023/05/31 05:17:57;;;;;;;4.05;2.15;;;24.70;82.90;;;;;;4995586;28;20034;-66
2023/05/31 05:20:23;;;;;;;8.98;2.55;;;25.40;80.70;;;;;;4993733;28;20026;-66
2023/05/31 05:22:52;;;;;;;6.47;3.13;;;25.60;79.20;;;;;;4991204;28;20113;-66
2023/05/31 05:25:18;;;;;;;5.55;2.30;;;25.90;78.40;;;;;;4994246;28;20100;-65
2023/05/31 05:27:44;;;;;;;4.97;2.22;;;25.70;76.50;;;;;;4990677;28;20033;-66
2023/05/31 05:30:10;;;;;;;6.97;2.33;;;26.40;75.70;;;;;;4993742;28;20026;-66
2023/05/31 05:32:36;;;;;;;5.25;1.85;;;26.20;75.70;;;;;;4996633;28;20444;-66
2023/05/31 05:35:01;;;;;;;7.00;2.17;;;27.20;75.10;;;;;;4992387;28;20052;-67
2023/05/31 05:37:27;;;;;;;6.32;2.30;;;27.90;72.60;;;;;;4990406;28;20331;-66
2023/05/31 05:39:53;;;;;;;7.13;2.60;;;27.90;70.70;;;;;;4973581;28;20069;-66
2023/05/31 05:42:19;;;;;;;3.95;2.13;;;28.00;70.90;;;;;;4989344;28;20065;-66
2023/05/31 05:44:44;;;;;;;3.92;2.22;;;27.70;72.10;;;;;;4971572;28;20022;-67
2023/05/31 05:47:11;;;;;;;5.90;2.20;;;27.50;72.40;;;;;;4989899;28;20030;-67
2023/05/31 05:49:36;;;;;;;5.70;2.40;;;27.50;71.80;;;;;;4989015;28;20030;-66
2023/05/31 05:52:02;;;;;;;4.45;2.10;;;27.80;70.20;;;;;;4988101;28;20037;-67
2023/05/31 05:54:27;;;;;;;5.82;2.47;;;28.50;69.50;;;;;;4993245;28;20049;-66
2023/05/31 05:56:53;;;;;;;7.90;2.30;;;29.20;68.00;;;;;;4995887;28;20068;-66
2023/05/31 05:59:19;;;;;;;7.22;2.30;;;28.40;69.90;;;;;;4992500;28;20034;-66
2023/05/31 06:01:45;;;;;;;5.05;2.35;;;28.70;69.20;;;;;;4993096;28;20030;-62
2023/05/31 06:04:11;;;;;;;6.32;2.40;;;28.80;67.90;;;;;;4993138;28;20026;-67
2023/05/31 06:06:36;;;;;;;8.13;2.33;;;29.40;66.60;;;;;;4994433;28;20570;-66
2023/05/31 06:09:02;;;;;;;4.30;1.88;;;29.30;66.80;;;;;;4991936;28;20113;-66
2023/05/31 06:11:28;;;;;;;9.02;1.83;;;29.50;66.20;;;;;;4992192;28;20030;-66
2023/05/31 06:13:56;;;;;;;4.28;2.20;;;29.00;65.00;;;;;;4994064;28;20133;-66
2023/05/31 06:16:22;;;;;;;8.02;2.30;;;28.80;65.20;;;;;;4975462;28;20076;-67
2023/05/31 06:18:48;;;;;;;3.92;1.70;;;29.70;66.50;;;;;;4990546;28;20050;-66
2023/05/31 06:21:14;;;;;;;3.00;1.58;;;30.20;63.60;;;;;;4991570;28;20488;-66
2023/05/31 06:23:39;;;;;;;5.78;2.75;;;29.50;64.30;;;;;;4989819;28;20149;-67
2023/05/31 06:26:05;;;;;;;3.40;1.70;;;29.70;64.20;;;;;;4968717;28;20030;-67
2023/05/31 06:28:30;;;;;;;5.28;2.20;;;29.10;64.00;;;;;;4967966;28;20023;-66
2023/05/31 06:30:56;;;;;;;4.43;1.73;;;28.90;62.70;;;;;;4981902;28;20545;-68
2023/05/31 06:33:22;;;;;;;6.10;1.75;;;28.80;64.50;;;;;;4990692;28;20030;-67
2023/05/31 06:35:47;;;;;;;7.20;1.95;;;29.60;63.90;;;;;;4988593;28;20037;-65
2023/05/31 06:38:15;;;;;;;7.60;1.95;;;28.60;64.50;;;;;;4964602;28;20030;-67
2023/05/31 06:40:42;;;;;;;4.50;2.03;;;29.40;64.70;;;;;;4968149;28;20026;-67
2023/05/31 06:43:08;;;;;;;3.88;2.00;;;30.60;62.40;;;;;;4986620;28;20121;-67
2023/05/31 06:45:33;;;;;;;5.65;2.05;;;31.30;60.00;;;;;;4984317;28;20101;-67
2023/05/31 06:47:59;;;;;;;10.35;1.85;;;31.30;61.30;;;;;;4984994;28;20026;-67
2023/05/31 06:50:24;;;;;;;5.22;1.95;;;31.10;59.10;;;;;;4985790;28;20030;-66
2023/05/31 06:52:50;;;;;;;5.05;1.77;;;31.00;59.20;;;;;;4985047;28;20550;-66
2023/05/31 06:55:15;;;;;;;4.90;1.90;;;31.00;60.10;;;;;;4984903;28;20034;-67
2023/05/31 06:57:41;;;;;;;6.20;2.08;;;32.20;59.40;;;;;;4985460;28;20112;-67
2023/05/31 07:00:07;;;;;;;6.18;2.03;;;32.40;59.90;;;;;;4985097;28;20038;-67
2023/05/31 07:02:33;;;;;;;5.72;1.80;;;31.70;57.90;;;;;;4989895;28;20042;-67
2023/05/31 07:04:59;;;;;;;4.63;1.83;;;31.80;58.70;;;;;;4986042;28;20042;-66
2023/05/31 07:07:26;;;;;;;3.80;1.88;;;31.90;58.60;;;;;;4983592;28;20575;-66
2023/05/31 07:09:51;;;;;;;8.68;2.25;;;32.20;58.50;;;;;;4986883;28;20030;-66
2023/05/31 07:12:17;;;;;;;4.45;1.90;;;32.40;57.10;;;;;;4987260;28;20022;-67
2023/05/31 07:14:42;;;;;;;7.22;2.10;;;32.80;58.90;;;;;;4990604;28;20030;-67
2023/05/31 07:17:08;;;;;;;2.15;1.42;;;32.20;55.20;;;;;;4970234;28;20169;-68
2023/05/31 07:19:46;;;;;;;5.18;1.75;;;32.50;57.80;;;;;;4989559;28;20030;-66
2023/05/31 07:22:16;;;;;;;5.43;2.00;;;31.80;56.30;;;;;;4986604;28;20039;-66
2023/05/31 07:24:42;;;;;;;4.25;1.85;;;32.80;55.50;;;;;;4985547;28;20033;-66
2023/05/31 07:27:08;;;;;;;5.05;1.88;;;32.40;54.80;;;;;;4981229;28;20030;-67
2023/05/31 07:29:34;;;;;;;7.07;2.10;;;32.00;54.70;;;;;;4980774;28;20029;-67
2023/05/31 07:31:59;;;;;;;5.38;1.90;;;31.80;54.30;;;;;;4989838;28;20101;-67
2023/05/31 07:34:25;;;;;;;2.92;1.80;;;31.70;54.60;;;;;;4986210;28;20515;-67
2023/05/31 07:36:51;;;;;;;8.02;1.98;;;32.60;53.70;;;;;;4970087;28;20026;-68
2023/05/31 07:39:16;;;;;;;4.13;1.60;;;32.50;54.30;;;;;;4962746;28;20042;-67
2023/05/31 07:41:42;;;;;;;6.72;2.10;;;33.00;54.50;;;;;;4981266;28;20382;-67
2023/05/31 07:44:08;;;;;;;3.78;1.77;;;32.40;54.20;;;;;;4985974;28;20121;-67
2023/05/31 07:46:35;;;;;;;6.93;1.80;;;32.40;54.90;;;;;;4982182;28;20114;-67
2023/05/31 07:49:01;;;;;;;5.50;2.03;;;32.40;54.60;;;;;;4987532;28;20029;-67
2023/05/31 07:51:29;;;;;;;5.15;2.10;;;33.70;54.60;;;;;;4989744;28;20105;-67
2023/05/31 07:53:55;;;;;;;4.00;1.80;;;33.40;53.20;;;;;;4990842;28;20457;-67
2023/05/31 07:56:20;;;;;;;6.45;1.95;;;33.50;52.00;;;;;;4985788;28;20109;-66
2023/05/31 07:58:46;;;;;;;5.25;1.65;;;33.50;52.40;;;;;;4983840;28;20050;-67
2023/05/31 08:01:12;;;;;;;4.38;1.83;;;33.80;52.60;;;;;;4986065;28;20595;-67
2023/05/31 08:03:40;;;;;;;3.88;1.98;;;33.70;52.50;;;;;;4991215;28;20040;-67
2023/05/31 08:06:07;;;;;;;4.40;1.63;;;34.30;50.60;;;;;;4987734;28;20035;-66
2023/05/31 08:08:32;;;;;;;4.10;1.85;;;34.00;51.00;;;;;;4987277;28;20392;-70
2023/05/31 08:10:58;;;;;;;5.28;1.83;;;33.60;49.90;;;;;;4961918;28;20122;-66
2023/05/31 08:13:24;;;;;;;3.35;1.80;;;32.90;51.20;;;;;;4981992;28;20027;-66
2023/05/31 08:15:51;;;;;;;3.38;1.70;;;33.20;51.10;;;;;;4987113;28;20049;-67
2023/05/31 08:18:17;;;;;;;8.57;2.25;;;34.20;51.00;;;;;;4987790;28;20030;-67
2023/05/31 08:20:43;;;;;;;3.13;1.60;;;34.20;49.40;;;;;;4983578;28;20100;-68
2023/05/31 08:23:08;;;;;;;5.78;2.03;;;33.70;50.30;;;;;;4989507;28;20041;-67
2023/05/31 08:25:34;;;;;;;6.53;2.58;;;33.50;49.90;;;;;;4984600;28;20034;-67
2023/05/31 08:28:00;;;;;;;5.63;2.08;;;32.90;49.50;;;;;;4984494;28;20110;-67
2023/05/31 08:30:25;;;;;;;3.03;1.48;;;33.10;50.70;;;;;;4981740;28;20335;-67
2023/05/31 08:32:53;;;;;;;5.03;1.80;;;33.40;49.20;;;;;;4985471;28;20030;-67
2023/05/31 08:35:18;;;;;;;4.72;1.60;;;32.50;49.10;;;;;;4981849;28;20033;-67
2023/05/31 08:37:45;;;;;;;4.65;1.75;;;32.70;48.10;;;;;;4983507;28;20437;-67
2023/05/31 08:40:10;;;;;;;4.72;1.85;;;32.80;48.50;;;;;;4969593;28;20050;-67
2023/05/31 08:42:50;;;;;;;3.28;1.65;;;32.80;48.50;;;;;;4989669;28;20109;-66
2023/05/31 08:45:17;;;;;;;5.85;2.00;;;32.80;49.30;;;;;;4988225;28;20176;-66
2023/05/31 08:47:45;;;;;;;4.95;1.60;;;32.70;48.30;;;;;;4976304;28;20038;-67
2023/05/31 08:50:12;;;;;;;6.97;2.08;;;32.60;49.30;;;;;;4986069;28;20030;-67
2023/05/31 08:52:39;;;;;;;3.22;1.58;;;32.90;47.70;;;;;;4989212;28;20492;-67
2023/05/31 08:55:05;;;;;;;3.13;1.73;;;33.20;47.20;;;;;;4986490;28;20023;-67
2023/05/31 08:57:33;;;;;;;2.55;1.77;;;32.50;47.10;;;;;;4969422;28;21890;-67
2023/05/31 09:00:07;;;;;;;4.57;1.65;;;32.90;49.50;;;;;;4985805;28;20492;-67
2023/05/31 09:02:33;;;;;;;5.43;1.75;;;33.30;48.60;;;;;;4985629;28;20414;-67
2023/05/31 09:04:59;;;;;;;2.78;1.73;;;33.60;47.80;;;;;;4986328;28;20116;-67
2023/05/31 09:07:24;;;;;;;4.95;1.77;;;33.80;47.00;;;;;;4982415;28;20510;-68
2023/05/31 09:09:50;;;;;;;6.82;1.60;;;32.80;46.50;;;;;;4982570;28;20033;-67
2023/05/31 09:12:16;;;;;;;4.00;1.88;;;32.60;50.00;;;;;;4990325;28;20399;-67
2023/05/31 09:14:42;;;;;;;3.42;2.00;;;32.80;47.60;;;;;;4986060;28;20023;-66
2023/05/31 09:17:08;;;;;;;5.63;1.48;;;32.40;48.00;;;;;;4971781;28;20046;-67
2023/05/31 09:19:33;;;;;;;4.85;2.13;;;32.30;47.70;;;;;;4985790;28;20038;-67
2023/05/31 09:21:59;;;;;;;4.47;1.60;;;32.90;47.20;;;;;;4982390;28;20034;-67
2023/05/31 09:24:24;;;;;;;6.55;1.80;;;32.40;46.70;;;;;;4964497;28;20113;-66
2023/05/31 09:26:52;;;;;;;2.75;1.35;;;32.10;46.60;;;;;;4973713;28;20031;-67
2023/05/31 09:29:19;;;;;;;3.15;1.65;;;32.20;47.30;;;;;;4984108;28;20019;-67
2023/05/31 09:31:45;;;;;;;7.50;1.88;;;32.20;46.30;;;;;;4980322;28;20019;-66
2023/05/31 09:34:26;;;;;;;4.18;1.60;;;31.90;47.10;;;;;;4979052;28;20022;-66
2023/05/31 09:36:52;;;;;;;3.03;1.90;;;31.90;47.10;;;;;;4984813;28;20105;-67
2023/05/31 09:39:19;;;;;;;5.47;1.80;;;31.90;46.70;;;;;;4985875;28;20139;-67
2023/05/31 09:41:50;;;;;;;4.10;1.45;;;31.00;47.50;;;;;;4986288;28;20193;-67
2023/05/31 09:44:16;;;;;;;5.82;1.70;;;31.40;47.70;;;;;;4982555;28;20072;-66
2023/05/31 09:46:44;;;;;;;3.28;1.50;;;31.90;46.90;;;;;;4986105;28;20645;-66
2023/05/31 09:49:10;;;;;;;5.32;2.10;;;32.00;45.70;;;;;;4968412;28;20046;-66
2023/05/31 09:51:37;;;;;;;4.03;1.83;;;31.30;46.80;;;;;;4987083;28;20023;-66
2023/05/31 09:54:14;;;;;;;6.03;1.52;;;31.00;47.60;;;;;;4981091;28;20018;-66
2023/05/31 09:56:41;;;;;;;2.70;1.65;;;30.70;47.80;;;;;;4983744;28;20022;-67
2023/05/31 09:59:08;;;;;;;6.53;1.55;;;30.20;47.30;;;;;;4982454;28;20492;-67
2023/05/31 10:01:34;;;;;;;6.32;2.03;;;30.50;48.90;;;;;;4993221;28;20161;-66
2023/05/31 10:04:03;;;;;;;2.72;1.50;;;30.20;48.10;;;;;;4992348;28;20034;-66
2023/05/31 10:06:29;;;;;;;3.50;1.30;;;30.20;47.70;;;;;;4992301;28;20025;-66
2023/05/31 10:08:55;;;;;;;7.68;1.60;;;30.50;50.00;;;;;;4990171;28;20022;-66
2023/05/31 10:11:26;;;;;;;3.42;1.60;;;30.20;50.40;;;;;;4983488;28;20027;-65
2023/05/31 10:13:59;;;;;;;2.50;1.20;;;29.40;47.70;;;;;;4992482;28;20041;-65
2023/05/31 10:16:35;;;;;;;3.78;1.55;;;29.40;50.90;;;;;;4973738;28;20022;-66
2023/05/31 10:19:04;;;;;;;3.97;1.60;;;28.90;49.90;;;;;;4991125;28;20117;-65
2023/05/31 10:21:30;;;;;;;3.88;1.80;;;28.70;50.00;;;;;;4989176;28;20028;-66
2023/05/31 10:24:08;;;;;;;4.93;1.73;;;28.10;49.20;;;;;;4983554;28;20037;-66
2023/05/31 10:26:46;;;;;;;4.63;1.38;;;27.60;49.50;;;;;;4985039;28;20034;-65
2023/05/31 10:29:17;;;;;;;2.28;1.10;;;27.30;53.90;;;;;;4985461;28;20530;-67
2023/05/31 10:31:50;;;;;;;6.82;1.60;;;27.20;52.00;;;;;;4980083;28;20023;-66
2023/05/31 10:34:23;;;;;;;6.53;1.63;;;26.90;50.50;;;;;;4988906;28;20026;-66
2023/05/31 10:36:53;;;;;;;2.28;1.58;;;27.10;51.00;;;;;;4984021;28;20031;-66
2023/05/31 10:39:46;;;;;;;4.32;1.92;;;27.40;51.50;;;;;;4985750;28;20117;-66
2023/05/31 10:42:24;;;;;;;5.75;2.00;;;27.50;52.80;;;;;;4991038;28;20439;-67
2023/05/31 10:44:58;;;;;;;4.38;1.80;;;27.40;53.60;;;;;;4985804;28;20128;-67
2023/05/31 10:47:26;;;;;;;;;;;27.50;52.40;;;;;;4992095;28;20121;-66
2023/05/31 10:49:55;;;;;;;5.30;1.85;;;27.40;51.30;;;;;;4981298;28;19917;-67
2023/05/31 10:52:20;;;;;;;11.52;1.75;;;27.40;52.90;;;;;;4988514;28;20591;-67
2023/05/31 10:54:46;;;;;;;6.57;1.83;;;27.30;52.70;;;;;;4983995;28;20030;-67
2023/05/31 10:57:14;;;;;;;2.17;1.38;;;27.20;53.00;;;;;;4985146;28;20026;-67
2023/05/31 10:59:42;;;;;;;5.28;1.80;;;27.20;52.50;;;;;;4987707;28;20022;-66
2023/05/31 11:02:09;;;;;;;5.25;2.15;;;27.10;53.90;;;;;;4987402;28;20373;-67
2023/05/31 11:04:35;;;;;;;4.60;1.98;;;27.00;51.80;;;;;;4985429;28;20496;-67
2023/05/31 11:07:14;;;;;;;3.83;1.90;;;27.10;53.40;;;;;;4983600;28;20042;-67
2023/05/31 11:09:59;;;;;;;4.63;2.28;;;27.10;51.90;;;;;;4981263;28;20072;-69
2023/05/31 11:12:36;;;;;;;4.13;1.73;;;26.90;53.00;;;;;;4978678;28;20030;-66
2023/05/31 11:15:05;;;;;;;4.30;1.75;;;26.80;52.30;;;;;;4976586;28;20027;-66
2023/05/31 11:17:40;;;;;;;2.80;1.73;;;26.50;52.80;;;;;;4984320;28;20058;-66
2023/05/31 11:20:07;;;;;;;13.23;1.83;;;26.40;52.40;;;;;;4987317;28;20624;-67
2023/05/31 11:22:32;;;;;;;4.22;1.85;;;26.30;52.60;;;;;;4985505;28;20485;-67
2023/05/31 11:24:58;;;;;;;2.53;1.20;;;26.20;53.10;;;;;;4989719;28;20037;-67
2023/05/31 11:27:35;;;;;;;3.53;1.95;;;26.30;54.00;;;;;;4989223;28;20041;-67
2023/05/31 11:30:03;;;;;;;3.17;1.55;;;26.30;56.40;;;;;;4989921;28;20113;-66
2023/05/31 11:32:34;;;;;;;8.43;2.10;;;26.40;54.60;;;;;;4987218;28;20042;-67
2023/05/31 11:35:04;;;;;;;2.55;1.58;;;26.10;53.30;;;;;;4967106;28;20027;-67
2023/05/31 11:37:31;;;;;;;9.38;1.95;;;26.10;52.90;;;;;;4987787;28;20030;-65
2023/05/31 11:40:05;;;;;;;6.93;1.50;;;26.10;53.60;;;;;;4987961;28;20038;-66
2023/05/31 11:42:32;;;;;;;5.03;1.85;;;26.00;54.20;;;;;;4968278;28;20037;-67
2023/05/31 11:45:06;;;;;;;4.75;1.98;;;25.90;53.40;;;;;;4988523;28;20034;-66
2023/05/31 11:47:59;;;;;;;4.47;1.60;;;25.90;53.40;;;;;;4987329;28;20568;-67
2023/05/31 11:50:25;;;;;;;2.95;1.80;;;25.90;54.20;;;;;;4974414;28;20587;-67
2023/05/31 11:52:54;;;;;;;2.42;1.85;;;25.90;54.60;;;;;;4987002;28;20049;-67
2023/05/31 11:55:20;;;;;;;3.67;1.40;;;26.10;54.90;;;;;;4988353;28;20026;-67
2023/05/31 11:57:51;;;;;;;5.75;2.28;;;26.10;52.10;;;;;;4986473;28;20084;-67
2023/05/31 12:00:21;;;;;;;3.63;1.70;;;25.90;54.10;;;;;;4988039;28;20041;-67
2023/05/31 12:02:52;;;;;;;7.28;2.00;;;26.00;54.80;;;;;;4984997;28;20857;-67
2023/05/31 12:05:18;;;;;;;4.68;1.92;;;26.00;54.50;;;;;;4987283;28;20038;-67
2023/05/31 12:07:44;;;;;;;3.38;1.92;;;25.90;53.60;;;;;;4969744;28;20031;-67
2023/05/31 12:10:11;;;;;;;6.45;2.17;;;26.00;55.50;;;;;;4987271;28;20081;-67
2023/05/31 12:12:38;;;;;;;5.05;1.88;;;26.10;54.90;;;;;;4980380;28;20034;-67
2023/05/31 12:15:05;;;;;;;3.88;2.03;;;26.00;54.30;;;;;;4979482;28;20038;-67
2023/05/31 12:17:31;;;;;;;5.50;1.80;;;25.90;54.20;;;;;;4978701;28;20117;-67
2023/05/31 12:19:57;;;;;;;5.28;1.70;;;25.80;53.40;;;;;;4988176;28;20042;-67
2023/05/31 12:22:22;;;;;;;12.73;1.77;;;25.90;53.10;;;;;;4985988;28;20117;-67
2023/05/31 12:24:50;;;;;;;4.18;1.60;;;25.90;52.00;;;;;;4983321;28;20062;-67
2023/05/31 12:27:16;;;;;;;6.78;1.50;;;25.80;53.10;;;;;;4985004;28;20129;-66
2023/05/31 12:29:42;;;;;;;4.60;1.85;;;25.70;53.60;;;;;;4985461;28;20380;-67
2023/05/31 12:32:09;;;;;;;5.82;1.65;;;25.70;52.90;;;;;;4987550;28;20032;-67
2023/05/31 12:34:36;;;;;;;4.68;2.03;;;25.70;54.50;;;;;;4990028;28;20169;-67
2023/05/31 12:37:07;;;;;;;7.13;2.00;;;25.80;52.50;;;;;;4988210;28;20033;-66
2023/05/31 12:39:33;;;;;;;3.15;1.80;;;25.70;52.50;;;;;;4988202;28;20035;-67
2023/05/31 12:42:00;;;;;;;3.63;2.28;;;25.50;53.90;;;;;;4982402;28;20117;-68
2023/05/31 12:44:27;;;;;;;3.05;2.00;;;25.60;51.30;;;;;;4984871;28;20080;-67
2023/05/31 12:47:01;;;;;;;3.45;1.88;;;25.60;53.30;;;;;;4977111;28;20061;-67